createdAt,value
2024-05-09T00:00:42.090Z,97622.25
2024-05-09T00:03:10.507Z,97613.09
2024-05-09T00:05:40.319Z,97612.44
2024-05-09T00:08:11.972Z,97607.88
2024-05-09T00:10:40.306Z,97605.84
2024-05-09T00:13:11.317Z,97601.69
2024-05-09T00:15:40.397Z,97603.59
2024-05-09T00:18:09.876Z,97599.44
2024-05-09T00:20:40.922Z,97597.16
2024-05-09T00:23:10.748Z,97600.41
2024-05-09T00:25:40.508Z,97605.09
2024-05-09T00:28:07.215Z,97598.41
2024-05-09T00:30:36.298Z,97603.25
2024-05-09T00:33:06.204Z,97595.84
2024-05-09T00:35:36.700Z,97600.81
2024-05-09T00:38:04.078Z,97604.31
2024-05-09T00:40:40.029Z,97595.78
2024-05-09T00:43:13.400Z,97604.31
2024-05-09T00:45:43.775Z,97602.88
2024-05-09T00:48:21.555Z,97601.31
2024-05-09T00:50:51.004Z,97607.88
2024-05-09T00:53:21.113Z,97603.63
2024-05-09T00:55:48.499Z,97611.41
2024-05-09T00:58:18.330Z,97609.75
2024-05-09T01:00:45.195Z,97605.84
2024-05-09T01:03:13.735Z,97609.41
2024-05-09T01:05:44.348Z,97605.84
2024-05-09T01:08:12.138Z,97603.16
2024-05-09T01:10:44.144Z,97599.72
2024-05-09T01:13:12.764Z,97600.81
2024-05-09T01:15:39.587Z,97597.69
2024-05-09T01:18:12.134Z,97591.84
2024-05-09T01:20:43.217Z,97582.59
2024-05-09T01:23:14.171Z,97592.69
2024-05-09T01:25:42.831Z,97584.91
2024-05-09T01:28:12.617Z,97600.84
2024-05-09T01:30:41.556Z,97590.34
2024-05-09T01:33:10.383Z,97593.84
2024-05-09T01:35:40.641Z,97592.75
2024-05-09T01:38:12.844Z,97595.00
2024-05-09T01:40:40.435Z,97589.59
2024-05-09T01:43:11.368Z,97588.09
2024-05-09T01:45:42.388Z,97582.69
2024-05-09T01:48:10.970Z,97587.72
2024-05-09T01:50:41.504Z,97581.91
2024-05-09T01:53:11.695Z,97581.91
2024-05-09T01:55:38.742Z,97586.56
2024-05-09T01:58:08.795Z,97583.78
2024-05-09T02:00:41.366Z,97586.78
2024-05-09T02:03:16.107Z,97587.94
2024-05-09T02:05:46.583Z,97576.31
2024-05-09T02:08:19.387Z,97570.09
2024-05-09T02:10:47.715Z,97584.94
2024-05-09T02:13:15.410Z,97580.25
2024-05-09T02:15:42.310Z,97584.91
2024-05-09T02:18:10.264Z,97586.06
2024-05-09T02:20:41.344Z,97577.56
2024-05-09T02:23:11.042Z,97579.50
2024-05-09T02:25:37.881Z,97574.38
2024-05-09T02:28:04.893Z,97574.34
2024-05-09T02:30:39.723Z,97570.88
2024-05-09T02:33:10.081Z,97575.53
2024-05-09T02:35:38.682Z,97576.69
2024-05-09T02:38:07.710Z,97570.50
2024-05-09T02:40:39.056Z,97575.53
2024-05-09T02:43:11.180Z,97568.19
2024-05-09T02:45:41.424Z,97564.34
2024-05-09T02:48:14.777Z,97568.13
2024-05-09T02:50:42.356Z,97554.22
2024-05-09T02:53:11.894Z,97555.34
2024-05-09T02:55:42.809Z,97557.31
2024-05-09T02:58:10.542Z,97554.16
2024-05-09T03:00:42.058Z,97559.16
2024-05-09T03:03:12.871Z,97552.97
2024-05-09T03:05:42.492Z,97563.47
2024-05-09T03:08:09.810Z,97556.03
2024-05-09T03:10:41.419Z,97561.41
2024-05-09T03:13:15.384Z,97563.78
2024-05-09T03:15:43.691Z,97563.72
2024-05-09T03:18:13.553Z,97559.44
2024-05-09T03:20:40.667Z,97556.72
2024-05-09T03:23:10.431Z,97562.94
2024-05-09T03:25:38.387Z,97567.94
2024-05-09T03:28:05.567Z,97560.06
2024-05-09T03:30:41.106Z,97553.59
2024-05-09T03:33:15.292Z,97555.50
2024-05-09T03:35:48.934Z,97558.94
2024-05-09T03:38:18.524Z,97563.56
2024-05-09T03:40:46.788Z,97550.78
2024-05-09T03:43:14.319Z,97562.38
2024-05-09T03:45:44.569Z,97562.75
2024-05-09T03:48:11.706Z,97551.97
2024-05-09T03:50:38.820Z,97559.97
2024-05-09T03:53:06.308Z,97566.19
2024-05-09T03:55:35.332Z,97563.47
2024-05-09T03:58:04.608Z,97570.06
2024-05-09T04:00:37.555Z,97566.59
2024-05-09T04:03:09.478Z,97558.38
2024-05-09T04:05:43.793Z,97564.97
2024-05-09T04:08:13.769Z,97565.00
2024-05-09T04:10:41.094Z,97560.34
2024-05-09T04:13:10.246Z,97563.88
2024-05-09T04:15:36.921Z,97571.28
2024-05-09T04:18:06.180Z,97570.13
2024-05-09T04:20:38.390Z,97575.47
2024-05-09T04:23:11.051Z,97571.28
2024-05-09T04:25:38.173Z,97576.72
2024-05-09T04:28:05.376Z,97570.03
2024-05-09T04:30:38.814Z,97570.84
2024-05-09T04:33:10.887Z,97575.94
2024-05-09T04:35:39.488Z,97577.81
2024-05-09T04:38:06.631Z,97574.34
2024-05-09T04:40:36.124Z,97581.19
2024-05-09T04:43:15.839Z,97572.78
2024-05-09T04:45:44.877Z,97585.53
2024-05-09T04:48:11.917Z,97588.53
2024-05-09T04:50:43.600Z,97595.91
2024-05-09T04:53:15.710Z,97592.03
2024-05-09T04:55:45.612Z,97590.88
2024-05-09T04:58:12.443Z,97590.09
2024-05-09T05:00:40.562Z,97579.84
2024-05-09T05:03:13.405Z,97594.19
2024-05-09T05:05:42.904Z,97596.19
2024-05-09T05:08:18.440Z,97584.50
2024-05-09T05:10:51.727Z,97592.66
2024-05-09T05:13:25.111Z,97591.09
2024-05-09T05:15:58.121Z,97587.91
2024-05-09T05:18:26.722Z,97586.31
2024-05-09T05:20:58.059Z,97591.69
2024-05-09T05:23:25.008Z,97597.19
2024-05-09T05:25:53.454Z,97597.09
2024-05-09T05:28:23.147Z,97607.69
2024-05-09T05:30:52.446Z,97601.63
2024-05-09T05:33:19.852Z,97597.94
2024-05-09T05:35:49.264Z,97605.72
2024-05-09T05:38:19.120Z,97603.88
2024-05-09T05:40:48.897Z,97605.09
2024-05-09T05:43:19.028Z,97600.84
2024-05-09T05:45:46.244Z,97610.72
2024-05-09T05:48:16.229Z,97608.31
2024-05-09T05:50:45.999Z,97611.53
2024-05-09T05:53:13.004Z,97604.19
2024-05-09T05:55:40.991Z,97607.28
2024-05-09T05:58:11.782Z,97605.63
2024-05-09T06:00:42.126Z,97605.38
2024-05-09T06:03:10.394Z,97611.53
2024-05-09T06:05:40.363Z,97600.13
2024-05-09T06:08:10.218Z,97591.66
2024-05-09T06:10:39.884Z,97592.25
2024-05-09T06:13:11.252Z,97595.75
2024-05-09T06:15:41.107Z,97597.00
2024-05-09T06:18:12.344Z,97603.31
2024-05-09T06:20:42.335Z,97596.16
2024-05-09T06:23:15.293Z,97605.59
2024-05-09T06:25:42.500Z,97601.97
2024-05-09T06:28:09.691Z,97599.78
2024-05-09T06:30:40.470Z,97594.69
2024-05-09T06:33:13.650Z,97591.75
2024-05-09T06:35:42.620Z,97597.88
2024-05-09T06:38:09.834Z,97590.03
2024-05-09T06:40:41.523Z,97599.78
2024-05-09T06:43:18.643Z,97589.78
2024-05-09T06:45:52.929Z,97597.06
2024-05-09T06:48:22.807Z,97597.53
2024-05-09T06:50:50.393Z,97598.06
2024-05-09T06:53:22.743Z,97604.19
2024-05-09T06:55:49.980Z,97595.59
2024-05-09T06:58:18.937Z,97603.97
2024-05-09T07:00:50.402Z,97600.28
2024-05-09T07:03:18.775Z,97607.41
2024-05-09T07:05:48.139Z,97601.59
2024-05-09T07:08:16.072Z,97603.66
2024-05-09T07:10:47.922Z,97607.25
2024-05-09T07:13:15.755Z,97606.03
2024-05-09T07:15:45.691Z,97605.88
2024-05-09T07:18:16.532Z,97605.59
2024-05-09T07:20:50.695Z,97604.91
2024-05-09T07:23:18.328Z,97596.00
2024-05-09T07:25:47.772Z,97595.31
2024-05-09T07:28:19.847Z,97593.56
2024-05-09T07:30:47.107Z,97589.66
2024-05-09T07:33:22.189Z,97594.47
2024-05-09T07:35:53.177Z,97581.25
2024-05-09T07:38:22.368Z,97592.31
2024-05-09T07:40:49.501Z,97593.28
2024-05-09T07:43:18.830Z,97599.72
2024-05-09T07:45:52.342Z,97592.09
2024-05-09T07:52:38.826Z,97596.50
2024-05-09T07:53:49.442Z,97592.25
2024-05-09T07:56:22.377Z,97604.34
2024-05-09T07:58:52.266Z,97587.78
2024-05-09T08:01:20.216Z,97581.19
2024-05-09T08:03:50.126Z,97576.78
2024-05-09T08:06:17.071Z,97576.94
2024-05-09T08:08:47.938Z,97578.56
2024-05-09T08:11:14.754Z,97584.69
2024-05-09T08:13:43.971Z,97585.72
2024-05-09T08:16:13.292Z,97582.50
2024-05-09T08:18:42.948Z,97588.63
2024-05-09T08:21:11.925Z,97589.03
2024-05-09T08:23:38.619Z,97579.75
2024-05-09T08:26:05.679Z,97592.66
2024-05-09T08:28:34.604Z,97582.97
2024-05-09T08:31:05.172Z,97577.81
2024-05-09T08:33:33.720Z,97577.22
2024-05-09T08:36:00.508Z,97579.84
2024-05-09T08:38:27.200Z,97582.91
2024-05-09T08:40:53.954Z,97592.81
2024-05-09T08:43:21.578Z,97597.63
2024-05-09T08:45:49.674Z,97590.06
2024-05-09T08:48:19.691Z,97588.81
2024-05-09T08:50:54.260Z,97589.78
2024-05-09T08:53:21.190Z,97589.53
2024-05-09T08:55:53.394Z,97586.09
2024-05-09T08:58:20.540Z,97583.91
2024-05-09T09:00:47.962Z,97583.56
2024-05-09T09:03:19.677Z,97582.28
2024-05-09T09:05:56.544Z,97580.34
2024-05-09T09:08:25.951Z,97586.88
2024-05-09T09:11:00.221Z,97582.03
2024-05-09T09:13:27.651Z,97575.56
2024-05-09T09:15:57.905Z,97570.94
2024-05-09T09:18:26.749Z,97584.16
2024-05-09T09:20:58.695Z,97584.13
2024-05-09T09:23:29.860Z,97582.50
2024-05-09T09:26:00.352Z,97584.19
2024-05-09T09:28:29.963Z,97588.84
2024-05-09T09:31:05.794Z,97586.16
2024-05-09T09:33:33.099Z,97585.56
2024-05-09T09:36:02.845Z,97582.03
2024-05-09T09:38:32.559Z,97578.56
2024-05-09T09:41:01.513Z,97581.88
2024-05-09T09:43:29.149Z,97579.84
2024-05-09T09:45:59.964Z,97583.00
2024-05-09T09:48:30.165Z,97583.41
2024-05-09T09:50:57.351Z,97584.06
2024-05-09T09:53:28.060Z,97577.78
2024-05-09T09:55:56.212Z,97572.53
2024-05-09T09:58:25.615Z,97567.44
2024-05-09T10:00:54.951Z,97573.81
2024-05-09T10:03:24.274Z,97565.59
2024-05-09T10:05:51.897Z,97562.53
2024-05-09T10:08:23.100Z,97567.00
2024-05-09T10:10:52.692Z,97562.34
2024-05-09T10:13:34.500Z,97558.34
2024-05-09T10:16:12.075Z,97564.56
2024-05-09T10:18:40.427Z,97564.97
2024-05-09T10:21:17.519Z,97573.88
2024-05-09T10:23:57.966Z,97572.22
2024-05-09T10:26:38.450Z,97571.88
2024-05-09T10:29:17.890Z,97563.03
2024-05-09T10:31:46.483Z,97567.66
2024-05-09T10:34:20.715Z,97571.47
2024-05-09T10:36:55.274Z,97571.56
2024-05-09T10:39:22.271Z,97569.72
2024-05-09T10:41:51.952Z,97557.09
2024-05-09T10:44:18.780Z,97564.59
2024-05-09T10:46:46.329Z,97550.81
2024-05-09T10:49:17.078Z,97550.59
2024-05-09T10:51:45.407Z,97553.00
2024-05-09T10:54:14.387Z,97551.06
2024-05-09T10:56:42.153Z,97538.56
2024-05-09T10:59:08.867Z,97545.31
2024-05-09T11:01:36.476Z,97546.97
2024-05-09T11:04:05.685Z,97546.84
2024-05-09T11:06:35.039Z,97548.97
2024-05-09T11:09:01.970Z,97546.13
2024-05-09T11:11:31.962Z,97537.34
2024-05-09T11:14:11.022Z,97543.09
2024-05-09T11:16:37.724Z,97542.59
2024-05-09T11:19:06.770Z,97530.59
2024-05-09T11:21:34.011Z,97534.38
2024-05-09T11:24:00.825Z,97537.19
2024-05-09T11:26:29.465Z,97533.97
2024-05-09T11:28:56.257Z,97541.03
2024-05-09T11:31:23.445Z,97540.78
2024-05-09T11:33:53.701Z,97532.09
2024-05-09T11:36:20.528Z,97540.91
2024-05-09T11:38:47.394Z,97529.06
2024-05-09T11:41:18.592Z,97531.03
2024-05-09T11:43:45.535Z,97537.66
2024-05-09T11:46:12.495Z,97537.13
2024-05-09T11:48:41.686Z,97540.03
2024-05-09T11:51:10.947Z,97536.09
2024-05-09T11:53:37.721Z,97529.66
2024-05-09T11:56:07.155Z,97524.13
2024-05-09T11:58:35.009Z,97524.66
2024-05-09T12:01:06.412Z,97518.28
2024-05-09T12:03:38.144Z,97517.94
2024-05-09T12:06:05.262Z,97512.78
2024-05-09T12:08:36.646Z,97511.50
2024-05-09T12:11:06.052Z,97511.50
2024-05-09T12:13:33.048Z,97515.00
2024-05-09T12:15:59.826Z,97510.28
2024-05-09T12:18:26.582Z,97503.56
2024-05-09T12:20:55.510Z,97497.09
2024-05-09T12:23:22.174Z,97497.38
2024-05-09T12:25:51.101Z,97491.72
2024-05-09T12:28:22.700Z,97493.63
2024-05-09T12:30:50.765Z,97487.59
2024-05-09T12:33:19.854Z,97494.22
2024-05-09T12:35:49.246Z,97489.09
2024-05-09T12:38:19.895Z,97484.63
2024-05-09T12:40:46.613Z,97491.81
2024-05-09T12:43:13.458Z,97479.16
2024-05-09T12:45:40.442Z,97488.75
2024-05-09T12:48:12.050Z,97477.88
2024-05-09T12:50:40.380Z,97481.47
2024-05-09T12:53:07.167Z,97487.72
2024-05-09T12:55:44.241Z,97485.00
2024-05-09T12:58:21.813Z,97484.34
2024-05-09T13:00:48.806Z,97471.22
2024-05-09T13:03:15.680Z,97479.19
2024-05-09T13:05:44.829Z,97474.09
2024-05-09T13:08:12.495Z,97470.19
2024-05-09T13:10:39.301Z,97470.59
2024-05-09T13:13:08.662Z,97460.50
2024-05-09T13:15:37.766Z,97456.59
2024-05-09T13:18:06.160Z,97460.56
2024-05-09T13:20:35.429Z,97450.78
2024-05-09T13:23:07.721Z,97454.59
2024-05-09T13:25:35.943Z,97443.44
2024-05-09T13:28:06.833Z,97432.44
2024-05-09T13:30:41.420Z,97443.81
2024-05-09T13:33:14.090Z,97445.84
2024-05-09T13:35:48.761Z,97435.00
2024-05-09T13:38:19.330Z,97425.56
2024-05-09T13:40:49.842Z,97433.03
2024-05-09T13:43:17.888Z,97419.28
2024-05-09T13:45:44.986Z,97427.34
2024-05-09T13:48:14.543Z,97415.91
2024-05-09T13:50:43.826Z,97416.69
2024-05-09T13:53:10.496Z,97414.13
2024-05-09T13:55:40.383Z,97409.25
2024-05-09T13:58:08.823Z,97400.41
2024-05-09T14:00:44.475Z,97405.53
2024-05-09T14:03:20.010Z,97389.00
2024-05-09T14:05:51.276Z,97397.78
2024-05-09T14:08:22.688Z,97397.34
2024-05-09T14:10:52.427Z,97391.50
2024-05-09T14:13:22.272Z,97385.22
2024-05-09T14:15:49.471Z,97391.25
2024-05-09T14:18:16.652Z,97383.72
2024-05-09T14:20:46.555Z,97385.91
2024-05-09T14:23:14.492Z,97378.31
2024-05-09T14:25:42.897Z,97371.63
2024-05-09T14:28:11.199Z,97380.94
2024-05-09T14:30:40.875Z,97376.53
2024-05-09T14:33:10.451Z,97375.44
2024-05-09T14:35:40.546Z,97377.53
2024-05-09T14:38:08.834Z,97379.22
2024-05-09T14:40:43.088Z,97378.94
2024-05-09T14:43:15.068Z,97369.28
2024-05-09T14:45:45.191Z,97363.34
2024-05-09T14:48:15.578Z,97360.41
2024-05-09T14:50:42.745Z,97352.00
2024-05-09T14:53:11.248Z,97368.09
2024-05-09T14:55:42.474Z,97359.59
2024-05-09T14:58:11.543Z,97356.13
2024-05-09T15:00:49.737Z,97355.56
2024-05-09T15:03:19.725Z,97350.69
2024-05-09T15:05:50.372Z,97369.91
2024-05-09T15:08:18.774Z,97356.22
2024-05-09T15:10:46.299Z,97355.16
2024-05-09T15:13:15.584Z,97358.31
2024-05-09T15:15:45.882Z,97345.88
2024-05-09T15:18:16.669Z,97343.75
2024-05-09T15:20:44.808Z,97342.94
2024-05-09T15:23:13.961Z,97341.03
2024-05-09T15:25:40.911Z,97342.41
2024-05-09T15:28:10.038Z,97334.53
2024-05-09T15:30:37.598Z,97333.53
2024-05-09T15:33:08.177Z,97333.38
2024-05-09T15:38:08.884Z,97330.81
2024-05-09T15:40:40.278Z,97332.69
2024-05-09T15:43:10.046Z,97337.44
2024-05-09T15:45:38.254Z,97334.00
2024-05-09T15:48:06.269Z,97343.63
2024-05-09T15:50:38.699Z,97330.66
2024-05-09T15:53:09.259Z,97332.38
2024-05-09T15:55:38.991Z,97334.16
2024-05-09T15:58:06.808Z,97346.19
2024-05-09T16:00:38.783Z,97330.19
2024-05-09T16:03:13.765Z,97328.53
2024-05-09T16:05:42.998Z,97328.31
2024-05-09T16:08:13.501Z,97325.56
2024-05-09T16:10:44.539Z,97321.09
2024-05-09T16:13:12.828Z,97321.22
2024-05-09T16:15:39.747Z,97327.47
2024-05-09T16:18:09.280Z,97324.91
2024-05-09T16:20:40.203Z,97322.47
2024-05-09T16:23:11.656Z,97318.69
2024-05-09T16:25:45.210Z,97320.31
2024-05-09T16:28:12.566Z,97316.22
2024-05-09T16:30:42.175Z,97331.81
2024-05-09T16:33:09.709Z,97317.31
2024-05-09T16:35:39.536Z,97327.75
2024-05-09T16:38:06.511Z,97324.53
2024-05-09T16:40:39.938Z,97323.69
2024-05-09T16:43:12.323Z,97320.19
2024-05-09T16:45:41.067Z,97314.66
2024-05-09T16:48:11.383Z,97316.53
2024-05-09T16:50:39.073Z,97309.78
2024-05-09T16:53:06.766Z,97305.78
2024-05-09T16:55:34.759Z,97299.84
2024-05-09T16:58:02.166Z,97306.34
2024-05-09T17:00:39.738Z,97303.72
2024-05-09T17:03:11.555Z,97303.91
2024-05-09T17:05:39.520Z,97311.16
2024-05-09T17:08:07.527Z,97302.00
2024-05-09T17:10:36.969Z,97304.66
2024-05-09T17:13:08.607Z,97304.84
2024-05-09T17:15:37.172Z,97310.34
2024-05-09T17:18:06.085Z,97299.50
2024-05-09T17:20:35.899Z,97309.00
2024-05-09T17:23:12.654Z,97311.16
2024-05-09T17:25:40.565Z,97314.06
2024-05-09T17:28:08.559Z,97310.09
2024-05-09T17:30:38.380Z,97309.75
2024-05-09T17:33:11.172Z,97313.44
2024-05-09T17:35:41.635Z,97317.06
2024-05-09T17:38:11.205Z,97313.09
2024-05-09T17:40:39.036Z,97315.22
2024-05-09T17:43:10.757Z,97311.25
2024-05-09T17:45:40.065Z,97317.38
2024-05-09T17:48:09.587Z,97319.66
2024-05-09T17:50:39.137Z,97312.22
2024-05-09T17:53:08.792Z,97322.09
2024-05-09T17:55:40.631Z,97311.91
2024-05-09T17:58:11.885Z,97308.97
2024-05-09T18:00:42.432Z,97316.75
2024-05-09T18:03:13.252Z,97319.19
2024-05-09T18:05:41.816Z,97316.16
2024-05-09T18:08:09.175Z,97314.78
2024-05-09T18:10:40.498Z,97314.00
2024-05-09T18:13:12.104Z,97316.75
2024-05-09T18:15:41.786Z,97312.31
2024-05-09T18:18:11.918Z,97314.91
2024-05-09T18:20:43.872Z,97321.00
2024-05-09T18:23:15.608Z,97325.88
2024-05-09T18:25:43.627Z,97320.81
2024-05-09T18:28:13.675Z,97324.00
2024-05-09T18:30:41.132Z,97325.19
2024-05-09T18:33:10.672Z,97323.84
2024-05-09T18:35:37.916Z,97326.88
2024-05-09T18:38:05.597Z,97318.56
2024-05-09T18:40:37.427Z,97332.00
2024-05-09T18:43:07.574Z,97329.63
2024-05-09T18:45:36.856Z,97325.50
2024-05-09T18:48:05.401Z,97327.34
2024-05-09T18:50:37.105Z,97332.31
2024-05-09T18:53:08.882Z,97333.56
2024-05-09T18:55:35.731Z,97331.38
2024-05-09T18:58:03.707Z,97329.97
2024-05-09T19:00:35.318Z,97338.97
2024-05-09T19:03:09.336Z,97328.47
2024-05-09T19:05:41.104Z,97338.53
2024-05-09T19:08:08.908Z,97340.41
2024-05-09T19:10:37.434Z,97344.47
2024-05-09T19:13:08.815Z,97336.72
2024-05-09T19:15:39.313Z,97354.38
2024-05-09T19:18:07.359Z,97332.56
2024-05-09T19:20:35.967Z,97346.31
2024-05-09T19:23:06.972Z,97355.13
2024-05-09T19:25:35.256Z,97351.34
2024-05-09T19:28:03.193Z,97353.97
2024-05-09T19:30:39.273Z,97358.59
2024-05-09T19:33:09.861Z,97353.91
2024-05-09T19:35:37.636Z,97353.94
2024-05-09T19:38:11.305Z,97359.22
2024-05-09T19:40:40.515Z,97358.22
2024-05-09T19:43:07.558Z,97361.63
2024-05-09T19:45:37.029Z,97364.63
2024-05-09T19:48:05.048Z,97360.88
2024-05-09T19:50:40.422Z,97354.03
2024-05-09T19:53:11.426Z,97363.75
2024-05-09T19:55:40.788Z,97364.72
2024-05-09T19:58:11.049Z,97362.34
2024-05-09T20:00:41.209Z,97370.00
2024-05-09T20:03:14.314Z,97369.47
2024-05-09T20:05:46.295Z,97371.34
2024-05-09T20:08:16.212Z,97368.94
2024-05-09T20:10:43.289Z,97368.16
2024-05-09T20:13:10.239Z,97370.97
2024-05-09T20:15:41.524Z,97375.34
2024-05-09T20:18:08.404Z,97369.34
2024-05-09T20:20:39.892Z,97373.94
2024-05-09T20:23:13.089Z,97372.94
2024-05-09T20:25:40.412Z,97375.91
2024-05-09T20:28:09.842Z,97369.00
2024-05-09T20:30:41.530Z,97379.28
2024-05-09T20:33:14.266Z,97381.72
2024-05-09T20:35:41.416Z,97384.47
2024-05-09T20:38:08.304Z,97382.50
2024-05-09T20:40:38.003Z,97378.59
2024-05-09T20:43:09.955Z,97377.00
2024-05-09T20:45:37.262Z,97377.66
2024-05-09T20:48:06.619Z,97383.25
2024-05-09T20:50:39.147Z,97372.03
2024-05-09T20:53:13.815Z,97370.03
2024-05-09T20:55:44.891Z,97378.00
2024-05-09T20:58:12.249Z,97376.53
2024-05-09T21:00:44.525Z,97376.31
2024-05-09T21:03:14.629Z,97371.44
2024-05-09T21:05:45.034Z,97378.41
2024-05-09T21:08:14.179Z,97373.03
2024-05-09T21:10:45.744Z,97367.00
2024-05-09T21:13:12.506Z,97379.38
2024-05-09T21:15:39.307Z,97369.09
2024-05-09T21:18:08.457Z,97363.91
2024-05-09T21:20:35.510Z,97376.09
2024-05-09T21:23:04.837Z,97377.44
2024-05-09T21:25:31.924Z,97370.56
2024-05-09T21:27:59.079Z,97369.69
2024-05-09T21:30:32.946Z,97367.22
2024-05-09T21:33:14.865Z,97365.66
2024-05-09T21:35:45.404Z,97365.81
2024-05-09T21:38:14.117Z,97361.97
2024-05-09T21:40:44.231Z,97360.53
2024-05-09T21:43:11.200Z,97333.78
2024-05-09T21:45:38.060Z,97351.91
2024-05-09T21:48:07.848Z,97352.09
2024-05-09T21:50:40.255Z,97348.53
2024-05-09T21:53:12.830Z,97358.56
2024-05-09T21:55:40.123Z,97363.28
2024-05-09T21:58:09.061Z,97354.66
2024-05-09T22:00:39.248Z,97360.53
2024-05-09T22:03:08.326Z,97359.59
2024-05-09T22:05:36.079Z,97352.53
2024-05-09T22:08:03.157Z,97356.44
2024-05-09T22:10:34.468Z,97354.19
2024-05-09T22:13:04.695Z,97349.94
2024-05-09T22:15:37.472Z,97359.66
2024-05-09T22:18:05.933Z,97352.78
2024-05-09T22:20:37.700Z,97349.28
2024-05-09T22:23:09.054Z,97355.75
2024-05-09T22:25:39.225Z,97345.25
2024-05-09T22:28:06.373Z,97348.25
2024-05-09T22:30:37.368Z,97347.56
2024-05-09T22:33:11.437Z,97347.50
2024-05-09T22:35:44.029Z,97338.88
2024-05-09T22:38:10.717Z,97343.25
2024-05-09T22:40:45.632Z,97342.38
2024-05-09T22:43:21.110Z,97340.59
2024-05-09T22:45:55.179Z,97336.31
2024-05-09T22:48:23.678Z,97336.69
2024-05-09T22:50:53.198Z,97339.47
2024-05-09T22:53:22.007Z,97325.59
2024-05-09T22:55:51.533Z,97331.66
2024-05-09T22:58:21.024Z,97331.81
2024-05-09T23:00:50.973Z,97333.25
2024-05-09T23:03:21.227Z,97329.94
2024-05-09T23:05:50.826Z,97334.47
2024-05-09T23:08:21.007Z,97335.66
2024-05-09T23:10:47.764Z,97323.69
2024-05-09T23:13:14.625Z,97334.94
2024-05-09T23:15:41.514Z,97328.38
2024-05-09T23:18:08.477Z,97332.97
2024-05-09T23:20:38.801Z,97323.00
2024-05-09T23:23:12.449Z,97328.31
2024-05-09T23:25:41.549Z,97325.78
2024-05-09T23:28:08.749Z,97341.88
2024-05-09T23:30:39.034Z,97339.34
2024-05-09T23:33:13.713Z,97339.59
2024-05-09T23:35:45.132Z,97337.44
2024-05-09T23:38:14.569Z,97335.69
2024-05-09T23:40:42.451Z,97328.50
2024-05-09T23:43:13.303Z,97328.66
2024-05-09T23:45:43.152Z,97331.78
2024-05-09T23:48:12.545Z,97323.53
2024-05-09T23:50:40.488Z,97316.09
2024-05-09T23:53:09.214Z,97315.66
2024-05-09T23:55:39.258Z,97312.59
2024-05-09T23:58:09.064Z,97314.47
